createdAt,value
2017-01-21T00:00:01.250Z,32.81
2017-01-21T00:00:41.838Z,32.52
2017-01-21T00:01:22.430Z,32.81
2017-01-21T00:02:03.009Z,32.71
2017-01-21T00:02:43.600Z,32.52
2017-01-21T00:03:24.189Z,32.81
2017-01-21T00:04:04.774Z,32.43
2017-01-21T00:04:45.373Z,32.52
2017-01-21T00:05:25.958Z,32.52
2017-01-21T00:06:06.548Z,32.62
2017-01-21T00:06:47.142Z,32.52
2017-01-21T00:07:27.715Z,32.71
2017-01-21T00:08:08.306Z,32.71
2017-01-21T00:08:48.890Z,32.81
2017-01-21T00:09:29.472Z,32.81
2017-01-21T00:10:10.051Z,32.52
2017-01-21T00:10:50.639Z,32.52
2017-01-21T00:11:31.224Z,32.81
2017-01-21T00:12:11.814Z,32.62
2017-01-21T00:12:52.426Z,32.62
2017-01-21T00:13:33.016Z,32.62
2017-01-21T00:14:13.594Z,32.71
2017-01-21T00:14:54.188Z,32.43
2017-01-21T00:15:34.777Z,32.43
2017-01-21T00:16:15.365Z,32.33
2017-01-21T00:16:55.958Z,32.52
2017-01-21T00:17:36.550Z,32.52
2017-01-21T00:18:17.146Z,32.52
2017-01-21T00:18:57.737Z,32.52
2017-01-21T00:19:38.331Z,32.33
2017-01-21T00:20:18.922Z,32.43
2017-01-21T00:20:59.505Z,32.43
2017-01-21T00:21:40.100Z,32.52
2017-01-21T00:22:20.683Z,32.52
2017-01-21T00:23:01.276Z,32.62
2017-01-21T00:23:41.864Z,32.52
2017-01-21T00:24:22.445Z,32.62
2017-01-21T00:25:03.032Z,32.43
2017-01-21T00:25:43.613Z,32.33
2017-01-21T00:26:24.193Z,32.43
2017-01-21T00:27:04.780Z,32.52
2017-01-21T00:27:45.357Z,32.33
2017-01-21T00:28:25.941Z,32.33
2017-01-21T00:29:06.527Z,32.43
2017-01-21T00:29:47.110Z,32.33
2017-01-21T00:30:27.698Z,32.33
2017-01-21T00:31:08.284Z,32.43
2017-01-21T00:31:48.886Z,32.43
2017-01-21T00:32:29.475Z,32.14
2017-01-21T00:33:10.077Z,32.33
2017-01-21T00:33:50.665Z,32.33
2017-01-21T00:34:31.248Z,32.33
2017-01-21T00:35:11.825Z,32.23
2017-01-21T00:35:52.408Z,32.23
2017-01-21T00:36:33.002Z,32.33
2017-01-21T00:37:13.588Z,32.52
2017-01-21T00:37:54.162Z,32.43
2017-01-21T00:38:34.750Z,32.43
2017-01-21T00:39:15.327Z,32.23
2017-01-21T00:39:55.905Z,32.33
2017-01-21T00:40:36.489Z,32.14
2017-01-21T00:41:17.060Z,32.33
2017-01-21T00:41:57.652Z,32.14
2017-01-21T00:42:38.244Z,32.33
2017-01-21T00:43:18.833Z,32.14
2017-01-21T00:43:59.420Z,31.65
2017-01-21T00:44:40.015Z,32.23
2017-01-21T00:45:20.615Z,32.23
2017-01-21T00:46:01.208Z,32.24
2017-01-21T00:46:41.814Z,32.33
2017-01-21T00:47:22.412Z,32.14
2017-01-21T00:48:02.992Z,32.33
2017-01-21T00:48:43.570Z,32.33
2017-01-21T00:49:24.159Z,32.14
2017-01-21T00:50:04.771Z,32.33
2017-01-21T00:50:45.347Z,32.23
2017-01-21T00:51:25.936Z,32.24
2017-01-21T00:52:06.524Z,32.14
2017-01-21T00:52:47.120Z,32.33
2017-01-21T00:53:27.701Z,32.33
2017-01-21T00:54:08.300Z,32.14
2017-01-21T00:54:48.885Z,32.15
2017-01-21T00:55:29.485Z,32.33
2017-01-21T00:56:10.085Z,32.14
2017-01-21T00:56:50.680Z,32.24
2017-01-21T00:57:31.273Z,32.24
2017-01-21T00:58:11.860Z,32.23
2017-01-21T00:58:52.457Z,32.44
2017-01-21T00:59:33.036Z,32.24
2017-01-21T01:00:13.632Z,32.15
2017-01-21T01:00:54.210Z,32.33
2017-01-21T01:01:34.804Z,32.14
2017-01-21T01:02:15.405Z,32.23
2017-01-21T01:02:56.000Z,32.33
2017-01-21T01:03:36.594Z,32.14
2017-01-21T01:04:17.188Z,32.14
2017-01-21T01:04:57.789Z,32.33
2017-01-21T01:05:38.373Z,32.24
2017-01-21T01:06:18.953Z,32.04
2017-01-21T01:06:59.554Z,31.94
2017-01-21T01:07:40.150Z,32.04
2017-01-21T01:08:20.738Z,32.33
2017-01-21T01:09:01.326Z,32.23
2017-01-21T01:09:41.909Z,31.96
2017-01-21T01:10:22.500Z,32.23
2017-01-21T01:11:03.087Z,32.33
2017-01-21T01:11:43.677Z,32.43
2017-01-21T01:12:24.270Z,32.04
2017-01-21T01:13:04.859Z,31.76
2017-01-21T01:13:45.430Z,32.14
2017-01-21T01:14:26.009Z,32.33
2017-01-21T01:15:06.595Z,32.14
2017-01-21T01:15:47.182Z,32.14
2017-01-21T01:16:27.772Z,31.75
2017-01-21T01:17:08.367Z,32.04
2017-01-21T01:17:48.957Z,31.85
2017-01-21T01:18:29.552Z,32.06
2017-01-21T01:19:10.140Z,31.94
2017-01-21T01:19:50.732Z,31.85
2017-01-21T01:20:31.320Z,31.57
2017-01-21T01:21:11.903Z,31.67
2017-01-21T01:21:52.491Z,31.94
2017-01-21T01:22:33.077Z,31.67
2017-01-21T01:23:13.666Z,32.15
2017-01-21T01:23:54.256Z,31.85
2017-01-21T01:24:34.850Z,31.57
2017-01-21T01:25:15.445Z,31.76
2017-01-21T01:25:56.064Z,31.86
2017-01-21T01:26:36.665Z,31.48
2017-01-21T01:27:17.272Z,31.85
2017-01-21T01:27:57.840Z,31.76
2017-01-21T01:28:38.428Z,31.67
2017-01-21T01:29:19.029Z,31.94
2017-01-21T01:29:59.628Z,31.57
2017-01-21T01:30:40.211Z,31.86
2017-01-21T01:31:20.806Z,31.38
2017-01-21T01:32:01.408Z,31.96
2017-01-21T01:32:41.998Z,31.76
2017-01-21T01:33:22.591Z,31.76
2017-01-21T01:34:03.189Z,31.48
2017-01-21T01:34:43.776Z,31.76
2017-01-21T01:35:24.358Z,31.67
2017-01-21T01:36:04.934Z,31.86
2017-01-21T01:36:45.518Z,31.85
2017-01-21T01:37:26.107Z,31.96
2017-01-21T01:38:06.677Z,31.76
2017-01-21T01:38:47.270Z,31.86
2017-01-21T01:39:27.844Z,31.96
2017-01-21T01:40:08.425Z,31.76
2017-01-21T01:40:49.009Z,31.86
2017-01-21T01:41:29.603Z,31.86
2017-01-21T01:42:10.205Z,31.76
2017-01-21T01:42:50.793Z,31.67
2017-01-21T01:43:31.373Z,31.76
2017-01-21T01:44:11.965Z,31.67
2017-01-21T01:44:52.547Z,31.86
2017-01-21T01:45:33.128Z,31.57
2017-01-21T01:46:13.721Z,31.67
2017-01-21T01:46:54.333Z,31.67
2017-01-21T01:47:34.936Z,31.96
2017-01-21T01:48:15.541Z,31.76
2017-01-21T01:48:56.133Z,31.28
2017-01-21T01:49:36.714Z,31.85
2017-01-21T01:50:17.298Z,31.76
2017-01-21T01:50:57.888Z,31.09
2017-01-21T01:51:38.506Z,31.18
2017-01-21T01:52:19.091Z,31.67
2017-01-21T01:52:59.704Z,31.18
2017-01-21T01:53:40.299Z,31.09
2017-01-21T01:54:20.884Z,30.99
2017-01-21T01:55:01.495Z,32.06
2017-01-21T01:55:42.099Z,31.96
2017-01-21T01:56:22.710Z,31.38
2017-01-21T01:57:03.306Z,31.48
2017-01-21T01:57:43.884Z,31.38
2017-01-21T01:58:24.470Z,31.57
2017-01-21T01:59:05.059Z,31.38
2017-01-21T01:59:45.661Z,31.48
2017-01-21T02:00:26.262Z,31.48
2017-01-21T02:01:06.877Z,31.57
2017-01-21T02:01:47.463Z,31.57
2017-01-21T02:02:28.070Z,31.38
2017-01-21T02:03:08.670Z,31.57
2017-01-21T02:03:49.288Z,31.38
2017-01-21T02:04:29.875Z,31.67
2017-01-21T02:05:10.482Z,31.67
2017-01-21T02:05:51.084Z,31.38
2017-01-21T02:06:31.683Z,31.67
2017-01-21T02:07:12.272Z,31.38
2017-01-21T02:07:52.877Z,31.18
2017-01-21T02:08:33.451Z,31.28
2017-01-21T02:09:14.036Z,31.38
2017-01-21T02:09:54.619Z,31.28
2017-01-21T02:10:35.208Z,31.67
2017-01-21T02:11:15.795Z,31.56
2017-01-21T02:11:56.384Z,31.46
2017-01-21T02:12:36.962Z,31.57
2017-01-21T02:13:17.541Z,31.28
2017-01-21T02:13:58.120Z,31.67
2017-01-21T02:14:38.710Z,31.65
2017-01-21T02:15:19.306Z,31.28
2017-01-21T02:15:59.905Z,31.28
2017-01-21T02:16:40.518Z,31.46
2017-01-21T02:17:21.119Z,31.46
2017-01-21T02:18:01.710Z,31.48
2017-01-21T02:18:42.310Z,31.09
2017-01-21T02:19:22.913Z,31.27
2017-01-21T02:20:03.516Z,31.07
2017-01-21T02:20:44.106Z,31.38
2017-01-21T02:21:24.700Z,31.57
2017-01-21T02:22:05.300Z,31.27
2017-01-21T02:22:45.886Z,31.57
2017-01-21T02:23:26.476Z,31.48
2017-01-21T02:24:07.072Z,31.27
2017-01-21T02:24:47.652Z,31.07
2017-01-21T02:25:28.230Z,31.09
2017-01-21T02:26:08.810Z,31.46
2017-01-21T02:26:49.397Z,31.38
2017-01-21T02:27:29.994Z,31.56
2017-01-21T02:28:10.587Z,31.27
2017-01-21T02:28:51.172Z,31.38
2017-01-21T02:29:31.767Z,31.57
2017-01-21T02:30:12.363Z,31.38
2017-01-21T02:30:52.954Z,31.48
2017-01-21T02:31:33.574Z,31.18
2017-01-21T02:32:14.164Z,31.48
2017-01-21T02:32:54.751Z,31.27
2017-01-21T02:33:35.335Z,31.46
2017-01-21T02:34:15.920Z,31.09
2017-01-21T02:34:56.510Z,31.48
2017-01-21T02:35:37.097Z,31.38
2017-01-21T02:36:17.706Z,31.76
2017-01-21T02:36:58.277Z,31.28
2017-01-21T02:37:38.880Z,31.18
2017-01-21T02:38:19.464Z,31.48
2017-01-21T02:39:00.045Z,31.48
2017-01-21T02:39:40.639Z,31.48
2017-01-21T02:40:21.219Z,31.48
2017-01-21T02:41:01.812Z,31.38
2017-01-21T02:41:42.399Z,31.48
2017-01-21T02:42:22.984Z,31.48
2017-01-21T02:43:03.572Z,31.57
2017-01-21T02:43:44.156Z,31.67
2017-01-21T02:44:24.744Z,31.48
2017-01-21T02:45:05.342Z,31.48
2017-01-21T02:45:45.928Z,31.67
2017-01-21T02:46:26.515Z,31.28
2017-01-21T02:47:07.111Z,31.38
2017-01-21T02:47:47.708Z,31.57
2017-01-21T02:48:28.297Z,31.67
2017-01-21T02:49:08.867Z,31.57
2017-01-21T02:49:49.473Z,31.18
2017-01-21T02:50:30.067Z,31.09
2017-01-21T02:51:10.644Z,31.57
2017-01-21T02:51:51.240Z,31.57
2017-01-21T02:52:31.847Z,31.48
2017-01-21T02:53:12.432Z,31.28
2017-01-21T02:53:53.024Z,31.48
2017-01-21T02:54:33.614Z,31.48
2017-01-21T02:55:14.211Z,31.09
2017-01-21T02:55:54.828Z,31.48
2017-01-21T02:56:35.406Z,31.48
2017-01-21T02:57:16.008Z,31.28
2017-01-21T02:57:56.600Z,31.48
2017-01-21T02:58:37.186Z,31.18
2017-01-21T02:59:17.782Z,31.67
2017-01-21T02:59:58.365Z,31.18
2017-01-21T03:00:38.962Z,31.18
2017-01-21T03:01:19.544Z,30.99
2017-01-21T03:02:00.117Z,31.67
2017-01-21T03:02:40.695Z,31.09
2017-01-21T03:03:21.298Z,31.57
2017-01-21T03:04:01.880Z,31.57
2017-01-21T03:04:42.460Z,31.09
2017-01-21T03:05:23.041Z,31.09
2017-01-21T03:06:03.641Z,31.09
2017-01-21T03:06:44.245Z,31.28
2017-01-21T03:07:24.836Z,31.57
2017-01-21T03:08:05.434Z,31.48
2017-01-21T03:08:46.027Z,31.09
2017-01-21T03:09:26.620Z,31.09
2017-01-21T03:10:07.204Z,31.57
2017-01-21T03:10:47.814Z,31.57
2017-01-21T03:11:28.407Z,31.18
2017-01-21T03:12:08.996Z,31.76
2017-01-21T03:12:49.588Z,31.09
2017-01-21T03:13:30.163Z,31.09
2017-01-21T03:14:10.770Z,31.09
2017-01-21T03:14:51.365Z,31.09
2017-01-21T03:15:31.953Z,31.67
2017-01-21T03:16:12.539Z,31.67
2017-01-21T03:16:53.120Z,31.48
2017-01-21T03:17:33.726Z,31.28
2017-01-21T03:18:14.330Z,31.09
2017-01-21T03:18:54.930Z,31.76
2017-01-21T03:19:35.522Z,31.57
2017-01-21T03:20:16.123Z,31.28
2017-01-21T03:20:56.733Z,31.18
2017-01-21T03:21:37.325Z,31.09
2017-01-21T03:22:17.929Z,31.28
2017-01-21T03:22:58.529Z,31.38
2017-01-21T03:23:39.113Z,31.48
2017-01-21T03:24:19.712Z,31.48
2017-01-21T03:25:00.294Z,31.18
2017-01-21T03:25:40.890Z,31.67
2017-01-21T03:26:21.479Z,31.67
2017-01-21T03:27:02.061Z,31.09
2017-01-21T03:27:42.651Z,31.48
2017-01-21T03:28:23.235Z,31.18
2017-01-21T03:29:03.816Z,31.38
2017-01-21T03:29:44.407Z,31.38
2017-01-21T03:30:24.990Z,31.48
2017-01-21T03:31:05.567Z,31.57
2017-01-21T03:31:46.147Z,31.28
2017-01-21T03:32:26.740Z,31.18
2017-01-21T03:33:07.324Z,31.18
2017-01-21T03:33:47.906Z,31.09
2017-01-21T03:34:28.497Z,31.18
2017-01-21T03:35:09.085Z,31.57
2017-01-21T03:35:49.668Z,31.09
2017-01-21T03:36:30.266Z,31.38
2017-01-21T03:37:10.863Z,31.67
2017-01-21T03:37:51.454Z,31.28
2017-01-21T03:38:32.039Z,31.09
2017-01-21T03:39:12.620Z,31.28
2017-01-21T03:39:53.218Z,31.18
2017-01-21T03:40:33.782Z,31.38
2017-01-21T03:41:14.366Z,31.18
2017-01-21T03:41:54.958Z,31.57
2017-01-21T03:42:35.528Z,31.28
2017-01-21T03:43:16.123Z,31.67
2017-01-21T03:43:56.699Z,31.18
2017-01-21T03:44:37.283Z,31.28
2017-01-21T03:45:17.878Z,31.67
2017-01-21T03:45:58.454Z,31.67
2017-01-21T03:46:39.042Z,31.18
2017-01-21T03:47:19.612Z,31.57
2017-01-21T03:48:00.202Z,31.48
2017-01-21T03:48:40.793Z,31.67
2017-01-21T03:49:21.382Z,31.18
2017-01-21T03:50:01.963Z,31.67
2017-01-21T03:50:42.550Z,31.18
2017-01-21T03:51:23.142Z,31.09
2017-01-21T03:52:03.721Z,31.57
2017-01-21T03:52:44.325Z,31.28
2017-01-21T03:53:24.919Z,31.09
2017-01-21T03:54:05.502Z,31.09
2017-01-21T03:54:46.083Z,31.09
2017-01-21T03:55:26.672Z,31.18
2017-01-21T03:56:07.258Z,31.18
2017-01-21T03:56:47.850Z,31.28
2017-01-21T03:57:28.427Z,31.09
2017-01-21T03:58:09.014Z,31.09
2017-01-21T03:58:49.591Z,31.57
2017-01-21T03:59:30.178Z,31.48
2017-01-21T04:00:10.770Z,31.28
2017-01-21T04:00:51.349Z,30.99
2017-01-21T04:01:31.961Z,31.18
2017-01-21T04:02:12.538Z,31.09
2017-01-21T04:02:53.116Z,31.28
2017-01-21T04:03:33.692Z,31.38
2017-01-21T04:04:14.290Z,31.18
2017-01-21T04:04:54.876Z,30.99
2017-01-21T04:05:35.475Z,31.18
2017-01-21T04:06:16.068Z,31.28
2017-01-21T04:06:56.648Z,31.28
2017-01-21T04:07:37.231Z,31.28
2017-01-21T04:08:17.817Z,31.57
2017-01-21T04:08:58.416Z,31.09
2017-01-21T04:09:39.024Z,31.18
2017-01-21T04:10:19.622Z,31.18
2017-01-21T04:11:00.214Z,30.99
2017-01-21T04:11:40.796Z,31.09
2017-01-21T04:12:21.382Z,31.18
2017-01-21T04:13:01.971Z,31.09
2017-01-21T04:13:42.549Z,31.57
2017-01-21T04:14:23.137Z,31.09
2017-01-21T04:15:03.740Z,31.38
2017-01-21T04:15:44.327Z,31.48
2017-01-21T04:16:24.914Z,31.38
2017-01-21T04:17:05.512Z,31.18
2017-01-21T04:17:46.106Z,31.18
2017-01-21T04:18:26.684Z,31.09
2017-01-21T04:19:07.277Z,31.48
2017-01-21T04:19:47.861Z,31.28
2017-01-21T04:20:28.458Z,31.28
2017-01-21T04:21:09.046Z,31.28
2017-01-21T04:21:49.647Z,31.28
2017-01-21T04:22:30.229Z,31.18
2017-01-21T04:23:10.843Z,31.18
2017-01-21T04:23:51.434Z,31.28
2017-01-21T04:24:32.027Z,31.18
2017-01-21T04:25:12.621Z,31.28
2017-01-21T04:25:53.203Z,30.99
2017-01-21T04:26:33.789Z,30.99
2017-01-21T04:27:14.393Z,31.38
2017-01-21T04:27:54.981Z,31.28
2017-01-21T04:28:35.564Z,31.18
2017-01-21T04:29:16.150Z,31.09
2017-01-21T04:29:56.737Z,31.18
2017-01-21T04:30:37.336Z,31.18
2017-01-21T04:31:17.928Z,31.38
2017-01-21T04:31:58.526Z,31.18
2017-01-21T04:32:39.108Z,31.57
2017-01-21T04:33:19.694Z,31.67
2017-01-21T04:34:00.265Z,31.28
2017-01-21T04:34:40.850Z,31.18
2017-01-21T04:35:21.452Z,31.38
2017-01-21T04:36:02.012Z,31.57
2017-01-21T04:36:42.608Z,31.28
2017-01-21T04:37:23.197Z,31.28
2017-01-21T04:38:03.797Z,31.09
2017-01-21T04:38:44.377Z,31.28
2017-01-21T04:39:24.968Z,31.38
2017-01-21T04:40:05.564Z,31.18
2017-01-21T04:40:46.148Z,31.28
2017-01-21T04:41:26.737Z,31.09
2017-01-21T04:42:07.333Z,31.18
2017-01-21T04:42:47.913Z,31.38
2017-01-21T04:43:28.498Z,31.18
2017-01-21T04:44:09.094Z,31.18
2017-01-21T04:44:49.683Z,31.18
2017-01-21T04:45:30.284Z,31.28
2017-01-21T04:46:10.877Z,31.28
2017-01-21T04:46:51.471Z,31.57
2017-01-21T04:47:32.045Z,31.18
2017-01-21T04:48:12.617Z,31.38
2017-01-21T04:48:53.203Z,31.48
2017-01-21T04:49:33.801Z,31.48
2017-01-21T04:50:14.380Z,31.38
2017-01-21T04:50:54.958Z,31.48
2017-01-21T04:51:35.564Z,31.18
2017-01-21T04:52:16.141Z,31.09
2017-01-21T04:52:56.726Z,31.48
2017-01-21T04:53:37.326Z,31.28
2017-01-21T04:54:17.945Z,31.28
2017-01-21T04:54:58.534Z,31.28
2017-01-21T04:55:39.125Z,31.09
2017-01-21T04:56:19.714Z,31.57
2017-01-21T04:57:00.298Z,31.09
2017-01-21T04:57:40.887Z,31.28
2017-01-21T04:58:21.483Z,31.28
2017-01-21T04:59:02.058Z,31.76
2017-01-21T04:59:42.647Z,31.57
2017-01-21T05:00:23.236Z,31.18
2017-01-21T05:01:03.830Z,31.18
2017-01-21T05:01:44.416Z,31.09
2017-01-21T05:02:24.996Z,31.28
2017-01-21T05:03:05.581Z,31.28
2017-01-21T05:03:46.194Z,31.09
2017-01-21T05:04:26.785Z,31.28
2017-01-21T05:05:07.372Z,31.09
2017-01-21T05:05:47.950Z,31.18
2017-01-21T05:06:28.547Z,31.09
2017-01-21T05:07:09.138Z,30.99
2017-01-21T05:07:49.717Z,31.18
2017-01-21T05:08:30.296Z,31.38
2017-01-21T05:09:10.883Z,31.28
2017-01-21T05:09:51.473Z,31.57
2017-01-21T05:10:32.056Z,31.57
2017-01-21T05:11:12.636Z,31.67
2017-01-21T05:11:53.213Z,30.99
2017-01-21T05:12:33.793Z,30.99
2017-01-21T05:13:14.393Z,31.09
2017-01-21T05:13:54.969Z,31.18
2017-01-21T05:14:35.551Z,31.09
2017-01-21T05:15:16.135Z,31.28
2017-01-21T05:15:56.718Z,31.57
2017-01-21T05:16:37.308Z,31.48
2017-01-21T05:17:17.890Z,31.28
2017-01-21T05:17:58.473Z,31.67
2017-01-21T05:18:39.062Z,31.57
2017-01-21T05:19:19.640Z,31.76
2017-01-21T05:20:00.217Z,31.57
2017-01-21T05:20:40.831Z,31.18
2017-01-21T05:21:21.407Z,31.09
2017-01-21T05:22:01.982Z,31.18
2017-01-21T05:22:42.573Z,31.18
2017-01-21T05:23:23.167Z,31.57
2017-01-21T05:24:03.755Z,31.18
2017-01-21T05:24:44.338Z,31.57
2017-01-21T05:25:24.935Z,31.76
2017-01-21T05:26:05.514Z,31.67
2017-01-21T05:26:46.097Z,31.09
2017-01-21T05:27:26.691Z,31.57
2017-01-21T05:28:07.277Z,31.18
2017-01-21T05:28:47.872Z,31.18
2017-01-21T05:29:28.458Z,31.76
2017-01-21T05:30:09.045Z,31.76
2017-01-21T05:30:49.646Z,31.28
2017-01-21T05:31:30.237Z,31.57
2017-01-21T05:32:10.833Z,31.18
2017-01-21T05:32:51.448Z,31.38
2017-01-21T05:33:32.027Z,31.57
2017-01-21T05:34:12.606Z,31.28
2017-01-21T05:34:53.191Z,31.76
2017-01-21T05:35:33.790Z,31.18
2017-01-21T05:36:14.386Z,31.09
2017-01-21T05:36:54.975Z,31.67
2017-01-21T05:37:35.563Z,31.18
2017-01-21T05:38:16.164Z,31.18
2017-01-21T05:38:56.779Z,31.57
2017-01-21T05:39:37.365Z,31.09
2017-01-21T05:40:17.955Z,31.18
2017-01-21T05:40:58.543Z,31.09
2017-01-21T05:41:39.137Z,31.18
2017-01-21T05:42:19.713Z,31.18
2017-01-21T05:43:00.290Z,31.48
2017-01-21T05:43:40.870Z,31.28
2017-01-21T05:44:21.462Z,31.18
2017-01-21T05:45:02.046Z,31.28
2017-01-21T05:45:42.634Z,31.28
2017-01-21T05:46:23.218Z,31.18
2017-01-21T05:47:03.828Z,31.48
2017-01-21T05:47:44.430Z,31.28
2017-01-21T05:48:25.029Z,31.18
2017-01-21T05:49:05.627Z,31.38
2017-01-21T05:49:46.228Z,31.18
2017-01-21T05:50:26.821Z,31.28
2017-01-21T05:51:07.414Z,31.18
2017-01-21T05:51:47.996Z,31.18
2017-01-21T05:52:28.584Z,31.18
2017-01-21T05:53:09.167Z,31.48
2017-01-21T05:53:49.749Z,31.38
2017-01-21T05:54:30.341Z,31.18
2017-01-21T05:55:10.923Z,31.28
2017-01-21T05:55:51.516Z,31.48
2017-01-21T05:56:32.106Z,31.38
2017-01-21T05:57:12.702Z,31.48
2017-01-21T05:57:53.287Z,31.48
2017-01-21T05:58:33.878Z,31.38
2017-01-21T05:59:14.465Z,31.28
2017-01-21T05:59:55.052Z,31.38
2017-01-21T06:00:35.645Z,31.38
2017-01-21T06:01:16.242Z,31.67
2017-01-21T06:01:56.826Z,31.57
2017-01-21T06:02:37.413Z,31.57
2017-01-21T06:03:18.010Z,31.48
2017-01-21T06:03:58.591Z,31.67
2017-01-21T06:04:39.177Z,31.48
2017-01-21T06:05:19.765Z,31.28
2017-01-21T06:06:00.373Z,31.38
2017-01-21T06:06:40.958Z,31.67
2017-01-21T06:07:21.540Z,31.57
2017-01-21T06:08:02.124Z,31.67
2017-01-21T06:08:42.726Z,31.18
2017-01-21T06:09:23.299Z,31.48
2017-01-21T06:10:03.888Z,31.09
2017-01-21T06:10:44.474Z,31.18
2017-01-21T06:11:25.066Z,31.09
2017-01-21T06:12:05.669Z,31.57
2017-01-21T06:12:46.253Z,31.67
2017-01-21T06:13:26.843Z,31.09
2017-01-21T06:14:07.441Z,31.67
2017-01-21T06:14:48.033Z,31.18
2017-01-21T06:15:28.615Z,31.67
2017-01-21T06:16:09.205Z,31.38
2017-01-21T06:16:49.823Z,31.38
2017-01-21T06:17:30.408Z,31.48
2017-01-21T06:18:10.992Z,31.48
2017-01-21T06:18:51.575Z,31.67
2017-01-21T06:19:32.152Z,31.67
2017-01-21T06:20:12.746Z,31.38
2017-01-21T06:20:53.329Z,31.67
2017-01-21T06:21:33.913Z,31.48
2017-01-21T06:22:14.503Z,31.38
2017-01-21T06:22:55.112Z,31.48
2017-01-21T06:23:35.715Z,31.48
2017-01-21T06:24:16.319Z,31.48
2017-01-21T06:24:56.902Z,31.57
2017-01-21T06:25:37.486Z,31.48
2017-01-21T06:26:18.080Z,31.48
2017-01-21T06:26:58.657Z,31.28
2017-01-21T06:27:39.241Z,31.48
2017-01-21T06:28:19.836Z,31.48
2017-01-21T06:29:00.436Z,31.09
2017-01-21T06:29:41.030Z,31.48
2017-01-21T06:30:21.640Z,31.48
2017-01-21T06:31:02.231Z,31.48
2017-01-21T06:31:42.839Z,31.38
2017-01-21T06:32:23.433Z,31.38
2017-01-21T06:33:04.013Z,31.28
2017-01-21T06:33:44.607Z,31.48
2017-01-21T06:34:25.201Z,31.48
2017-01-21T06:35:05.793Z,31.48
2017-01-21T06:35:46.369Z,31.18
2017-01-21T06:36:26.952Z,31.28
2017-01-21T06:37:07.560Z,31.18
2017-01-21T06:37:48.143Z,31.38
2017-01-21T06:38:28.755Z,31.28
2017-01-21T06:39:09.354Z,31.18
2017-01-21T06:39:49.956Z,31.28
2017-01-21T06:40:30.557Z,31.28
2017-01-21T06:41:11.137Z,31.28
2017-01-21T06:41:51.727Z,31.57
2017-01-21T06:42:32.317Z,31.18
2017-01-21T06:43:12.890Z,31.28
2017-01-21T06:43:53.474Z,31.28
2017-01-21T06:44:34.081Z,31.28
2017-01-21T06:45:14.678Z,31.18
2017-01-21T06:45:55.268Z,31.18
2017-01-21T06:46:35.866Z,31.18
2017-01-21T06:47:16.469Z,31.18
2017-01-21T06:47:57.068Z,31.38
2017-01-21T06:48:37.667Z,31.18
2017-01-21T06:49:18.248Z,31.28
2017-01-21T06:49:58.838Z,31.18
2017-01-21T06:50:39.424Z,31.09
2017-01-21T06:51:20.019Z,31.28
2017-01-21T06:52:00.594Z,31.28
2017-01-21T06:52:41.201Z,31.28
2017-01-21T06:53:21.797Z,31.18
2017-01-21T06:54:02.387Z,31.28
2017-01-21T06:54:42.974Z,31.18
2017-01-21T06:55:23.553Z,30.99
2017-01-21T06:56:04.149Z,30.99
2017-01-21T06:56:44.756Z,30.99
2017-01-21T06:57:25.368Z,31.38
2017-01-21T06:58:05.964Z,31.09
2017-01-21T06:58:46.568Z,30.99
2017-01-21T06:59:27.147Z,30.9
2017-01-21T07:00:07.723Z,30.99
2017-01-21T07:00:48.304Z,30.99
2017-01-21T07:01:28.894Z,31.09
2017-01-21T07:02:09.479Z,31.09
2017-01-21T07:02:50.068Z,31.09
2017-01-21T07:03:31.333Z,30.99
2017-01-21T07:04:11.929Z,30.99
2017-01-21T07:04:52.523Z,30.9
2017-01-21T07:05:33.110Z,31.09
2017-01-21T07:06:13.701Z,31.18
2017-01-21T07:06:54.298Z,31.09
2017-01-21T07:07:34.904Z,30.99
2017-01-21T07:08:15.489Z,31.09
2017-01-21T07:08:56.089Z,31.09
2017-01-21T07:09:36.685Z,31.18
2017-01-21T07:10:17.262Z,31.09
2017-01-21T07:10:57.855Z,31.09
2017-01-21T07:11:38.432Z,31.09
2017-01-21T07:12:19.014Z,31.18
2017-01-21T07:13:00.542Z,31.09
2017-01-21T07:13:40.198Z,30.99
2017-01-21T07:14:20.773Z,30.99
2017-01-21T07:15:01.371Z,31.09
2017-01-21T07:15:41.946Z,30.99
2017-01-21T07:16:22.541Z,30.99
2017-01-21T07:17:03.128Z,31.18
2017-01-21T07:17:43.722Z,30.99
2017-01-21T07:18:24.319Z,30.99
2017-01-21T07:19:04.895Z,31.09
2017-01-21T07:19:45.494Z,30.99
2017-01-21T07:20:26.094Z,30.99
2017-01-21T07:21:06.690Z,31.28
2017-01-21T07:21:47.297Z,31.18
2017-01-21T07:22:27.880Z,30.99
2017-01-21T07:23:08.470Z,30.8
2017-01-21T07:23:49.089Z,30.7
2017-01-21T07:24:29.668Z,31.28
2017-01-21T07:25:10.258Z,30.9
2017-01-21T07:25:50.851Z,31.28
2017-01-21T07:26:31.436Z,31.18
2017-01-21T07:27:12.028Z,30.99
2017-01-21T07:27:52.625Z,30.8
2017-01-21T07:28:33.211Z,30.99
2017-01-21T07:29:13.812Z,30.99
2017-01-21T07:29:54.394Z,30.99
2017-01-21T07:30:35.012Z,30.99
2017-01-21T07:31:15.602Z,30.99
2017-01-21T07:31:56.189Z,30.99
2017-01-21T07:32:36.767Z,31.09
2017-01-21T07:33:17.355Z,30.99
2017-01-21T07:33:57.939Z,30.99
2017-01-21T07:34:38.521Z,30.99
2017-01-21T07:35:19.109Z,30.99
2017-01-21T07:35:59.690Z,31.09
2017-01-21T07:36:40.274Z,30.99
2017-01-21T07:37:20.884Z,31.09
2017-01-21T07:38:01.476Z,30.99
2017-01-21T07:38:42.074Z,30.99
2017-01-21T07:39:22.679Z,30.99
2017-01-21T07:40:03.272Z,30.9
2017-01-21T07:40:43.862Z,30.99
2017-01-21T07:41:24.456Z,30.99
2017-01-21T07:42:05.050Z,30.99
2017-01-21T07:42:45.638Z,30.8
2017-01-21T07:43:26.230Z,30.9
2017-01-21T07:44:06.815Z,30.99
2017-01-21T07:44:47.428Z,30.8
2017-01-21T07:45:28.026Z,30.61
2017-01-21T07:46:08.613Z,30.7
2017-01-21T07:46:49.202Z,30.7
2017-01-21T07:47:29.783Z,30.61
2017-01-21T07:48:10.359Z,30.8
2017-01-21T07:48:50.938Z,30.7
2017-01-21T07:49:31.527Z,30.61
2017-01-21T07:50:12.108Z,30.7
2017-01-21T07:50:52.692Z,30.61
2017-01-21T07:51:33.272Z,30.61
2017-01-21T07:52:13.872Z,30.61
2017-01-21T07:52:54.462Z,30.61
2017-01-21T07:53:35.033Z,30.61
2017-01-21T07:54:15.628Z,30.7
2017-01-21T07:54:56.222Z,30.61
2017-01-21T07:55:36.809Z,30.61
2017-01-21T07:56:17.394Z,30.51
2017-01-21T07:56:57.986Z,30.51
2017-01-21T07:57:38.582Z,30.61
2017-01-21T07:58:19.186Z,30.51
2017-01-21T07:58:59.776Z,30.61
2017-01-21T07:59:40.368Z,30.41
2017-01-21T08:00:20.961Z,30.7
2017-01-21T08:01:01.563Z,30.7
2017-01-21T08:01:42.143Z,30.51
2017-01-21T08:02:22.720Z,30.7
2017-01-21T08:03:03.308Z,30.61
2017-01-21T08:03:43.905Z,30.61
2017-01-21T08:04:24.508Z,30.7
2017-01-21T08:05:05.093Z,30.41
2017-01-21T08:05:45.682Z,30.61
2017-01-21T08:06:26.275Z,30.51
2017-01-21T08:07:06.857Z,30.51
2017-01-21T08:07:47.458Z,30.51
2017-01-21T08:08:28.046Z,30.61
2017-01-21T08:09:08.645Z,30.41
2017-01-21T08:09:49.222Z,30.61
2017-01-21T08:10:30.381Z,30.61
2017-01-21T08:11:10.956Z,30.51
2017-01-21T08:11:51.537Z,30.32
2017-01-21T08:12:32.116Z,30.41
2017-01-21T08:13:12.690Z,30.41
2017-01-21T08:13:53.273Z,30.32
2017-01-21T08:14:33.873Z,30.8
2017-01-21T08:15:14.459Z,30.7
2017-01-21T08:15:55.033Z,30.61
2017-01-21T08:16:35.615Z,30.7
2017-01-21T08:17:16.200Z,30.22
2017-01-21T08:17:56.785Z,30.61
2017-01-21T08:18:37.373Z,30.12
2017-01-21T08:19:17.956Z,30.41
2017-01-21T08:19:58.547Z,30.51
2017-01-21T08:20:39.138Z,30.12
2017-01-21T08:21:19.731Z,30.22
2017-01-21T08:22:00.344Z,30.41
2017-01-21T08:22:40.932Z,30.22
2017-01-21T08:23:21.528Z,30.32
2017-01-21T08:24:02.104Z,30.12
2017-01-21T08:24:42.695Z,30.03
2017-01-21T08:25:23.289Z,30.51
2017-01-21T08:26:03.872Z,30.61
2017-01-21T08:26:44.452Z,30.51
2017-01-21T08:27:25.041Z,30.51
2017-01-21T08:28:05.621Z,30.51
2017-01-21T08:28:46.199Z,30.22
2017-01-21T08:29:26.785Z,30.03
2017-01-21T08:30:07.375Z,30.22
2017-01-21T08:30:47.963Z,30.51
2017-01-21T08:31:28.560Z,30.51
2017-01-21T08:32:09.144Z,30.51
2017-01-21T08:32:49.728Z,30.12
2017-01-21T08:33:30.320Z,30.22
2017-01-21T08:34:10.909Z,30.41
2017-01-21T08:34:51.504Z,30.22
2017-01-21T08:35:32.091Z,30.22
2017-01-21T08:36:12.670Z,30.22
2017-01-21T08:36:53.284Z,30.22
2017-01-21T08:37:33.865Z,30.32
2017-01-21T08:38:14.448Z,30.32
2017-01-21T08:38:55.043Z,30.22
2017-01-21T08:39:35.623Z,30.03
2017-01-21T08:40:16.214Z,30.41
2017-01-21T08:40:56.796Z,30.12
2017-01-21T08:41:37.380Z,30.32
2017-01-21T08:42:17.977Z,30.22
2017-01-21T08:42:58.565Z,30.51